sensor_id;sensor_type;location;lat;lon;timestamp;pressure;altitude;pressure_sealevel;temperature;humidity
29907;BME280;16776;50.958;10.994;2024-03-06T00:02:24;98598.00;;;5.13;100.00
29907;BME280;16776;50.958;10.994;2024-03-06T00:04:51;98602.25;;;5.13;100.00
29907;BME280;16776;50.958;10.994;2024-03-06T00:07:18;98606.50;;;5.12;100.00
29907;BME280;16776;50.958;10.994;2024-03-06T00:09:46;98605.66;;;5.15;100.00
29907;BME280;16776;50.958;10.994;2024-03-06T00:12:12;98612.47;;;5.13;100.00
29907;BME280;16776;50.958;10.994;2024-03-06T00:14:39;98608.22;;;5.13;100.00
29907;BME280;16776;50.958;10.994;2024-03-06T00:17:06;98618.44;;;5.15;100.00
29907;BME280;16776;50.958;10.994;2024-03-06T00:19:32;98614.16;;;5.15;100.00
29907;BME280;16776;50.958;10.994;2024-03-06T00:21:59;98609.91;;;5.16;100.00
29907;BME280;16776;50.958;10.994;2024-03-06T00:24:26;98609.06;;;5.15;100.00
29907;BME280;16776;50.958;10.994;2024-03-06T00:26:54;98613.34;;;5.18;100.00
29907;BME280;16776;50.958;10.994;2024-03-06T00:29:20;98615.88;;;5.15;100.00
29907;BME280;16776;50.958;10.994;2024-03-06T00:31:47;98620.97;;;5.15;100.00
29907;BME280;16776;50.958;10.994;2024-03-06T00:34:14;98619.28;;;5.14;100.00
29907;BME280;16776;50.958;10.994;2024-03-06T00:36:41;98630.34;;;5.13;100.00
29907;BME280;16776;50.958;10.994;2024-03-06T00:39:08;98630.34;;;5.13;100.00
29907;BME280;16776;50.958;10.994;2024-03-06T00:41:35;98633.75;;;5.12;100.00
29907;BME280;16776;50.958;10.994;2024-03-06T00:44:03;98637.16;;;5.14;100.00
29907;BME280;16776;50.958;10.994;2024-03-06T00:46:31;98640.59;;;5.11;100.00
29907;BME280;16776;50.958;10.994;2024-03-06T00:48:57;98635.47;;;5.10;100.00
29907;BME280;16776;50.958;10.994;2024-03-06T00:51:24;98641.44;;;5.09;100.00
29907;BME280;16776;50.958;10.994;2024-03-06T00:53:50;98640.56;;;5.06;100.00
29907;BME280;16776;50.958;10.994;2024-03-06T00:56:17;98636.34;;;5.04;100.00
29907;BME280;16776;50.958;10.994;2024-03-06T00:58:43;98637.22;;;5.03;100.00
29907;BME280;16776;50.958;10.994;2024-03-06T01:01:11;98640.59;;;5.03;100.00
29907;BME280;16776;50.958;10.994;2024-03-06T01:03:38;98640.59;;;5.00;100.00
29907;BME280;16776;50.958;10.994;2024-03-06T01:06:05;98643.16;;;5.00;100.00
29907;BME280;16776;50.958;10.994;2024-03-06T01:08:31;98650.81;;;5.00;100.00
29907;BME280;16776;50.958;10.994;2024-03-06T01:10:58;98648.25;;;5.00;100.00
29907;BME280;16776;50.958;10.994;2024-03-06T01:13:24;98650.81;;;5.00;100.00
29907;BME280;16776;50.958;10.994;2024-03-06T01:15:51;98651.66;;;5.01;100.00
29907;BME280;16776;50.958;10.994;2024-03-06T01:18:19;98661.88;;;5.02;100.00
29907;BME280;16776;50.958;10.994;2024-03-06T01:20:46;98655.06;;;5.01;100.00
29907;BME280;16776;50.958;10.994;2024-03-06T01:23:12;98658.47;;;5.02;100.00
29907;BME280;16776;50.958;10.994;2024-03-06T01:25:39;98660.19;;;5.01;100.00
29907;BME280;16776;50.958;10.994;2024-03-06T01:28:06;98656.78;;;5.01;100.00
29907;BME280;16776;50.958;10.994;2024-03-06T01:30:32;98659.31;;;5.01;100.00
29907;BME280;16776;50.958;10.994;2024-03-06T01:32:59;98664.44;;;5.01;100.00
29907;BME280;16776;50.958;10.994;2024-03-06T01:35:27;98668.69;;;5.03;100.00
29907;BME280;16776;50.958;10.994;2024-03-06T01:37:53;98666.13;;;5.02;100.00
29907;BME280;16776;50.958;10.994;2024-03-06T01:40:20;98664.44;;;5.02;100.00
29907;BME280;16776;50.958;10.994;2024-03-06T01:42:47;98666.97;;;5.04;100.00
29907;BME280;16776;50.958;10.994;2024-03-06T01:45:14;98672.94;;;5.03;100.00
29907;BME280;16776;50.958;10.994;2024-03-06T01:47:41;98642.38;;;4.89;100.00
29907;BME280;16776;50.958;10.994;2024-03-06T01:50:08;98669.50;;;5.05;100.00
29907;BME280;16776;50.958;10.994;2024-03-06T01:52:38;98671.22;;;5.08;100.00
29907;BME280;16776;50.958;10.994;2024-03-06T01:55:07;98674.59;;;5.05;100.00
29907;BME280;16776;50.958;10.994;2024-03-06T01:57:34;98673.78;;;5.03;100.00
29907;BME280;16776;50.958;10.994;2024-03-06T02:00:02;98678.03;;;5.03;100.00
29907;BME280;16776;50.958;10.994;2024-03-06T02:02:30;98668.69;;;5.03;100.00
29907;BME280;16776;50.958;10.994;2024-03-06T02:04:57;98672.09;;;5.02;100.00
29907;BME280;16776;50.958;10.994;2024-03-06T02:07:25;98672.09;;;5.02;100.00
29907;BME280;16776;50.958;10.994;2024-03-06T02:09:53;98670.38;;;5.04;100.00
29907;BME280;16776;50.958;10.994;2024-03-06T02:12:19;98679.75;;;5.04;100.00
29907;BME280;16776;50.958;10.994;2024-03-06T02:14:46;98668.69;;;5.03;100.00
29907;BME280;16776;50.958;10.994;2024-03-06T02:17:12;98674.63;;;5.04;100.00
29907;BME280;16776;50.958;10.994;2024-03-06T02:19:39;98669.50;;;5.05;100.00
29907;BME280;16776;50.958;10.994;2024-03-06T02:22:08;98673.75;;;5.08;100.00
29907;BME280;16776;50.958;10.994;2024-03-06T02:24:35;98668.66;;;5.06;100.00
29907;BME280;16776;50.958;10.994;2024-03-06T02:27:01;98669.50;;;5.05;100.00
29907;BME280;16776;50.958;10.994;2024-03-06T02:29:31;98666.09;;;5.06;100.00
29907;BME280;16776;50.958;10.994;2024-03-06T02:31:57;98671.22;;;5.06;100.00
29907;BME280;16776;50.958;10.994;2024-03-06T02:34:24;98673.75;;;5.06;100.00
29907;BME280;16776;50.958;10.994;2024-03-06T02:36:51;98672.06;;;5.07;100.00
29907;BME280;16776;50.958;10.994;2024-03-06T02:39:19;98669.50;;;5.09;100.00
29907;BME280;16776;50.958;10.994;2024-03-06T02:41:46;98672.91;;;5.07;100.00
29907;BME280;16776;50.958;10.994;2024-03-06T02:44:14;98682.28;;;5.09;100.00
29907;BME280;16776;50.958;10.994;2024-03-06T02:46:41;98680.56;;;5.09;100.00
29907;BME280;16776;50.958;10.994;2024-03-06T02:49:07;98679.72;;;5.09;100.00
29907;BME280;16776;50.958;10.994;2024-03-06T02:51:34;98678.03;;;5.09;100.00
29907;BME280;16776;50.958;10.994;2024-03-06T02:54:01;98681.41;;;5.10;100.00
29907;BME280;16776;50.958;10.994;2024-03-06T02:56:29;98685.66;;;5.12;100.00
29907;BME280;16776;50.958;10.994;2024-03-06T02:58:55;98678.88;;;5.11;100.00
29907;BME280;16776;50.958;10.994;2024-03-06T03:01:23;98672.94;;;5.00;100.00
29907;BME280;16776;50.958;10.994;2024-03-06T03:03:49;98683.97;;;5.10;100.00
29907;BME280;16776;50.958;10.994;2024-03-06T03:06:16;98687.38;;;5.10;100.00
29907;BME280;16776;50.958;10.994;2024-03-06T03:08:43;98693.34;;;5.09;100.00
29907;BME280;16776;50.958;10.994;2024-03-06T03:11:09;98691.63;;;5.06;100.00
29907;BME280;16776;50.958;10.994;2024-03-06T03:13:39;98700.13;;;5.09;100.00
29907;BME280;16776;50.958;10.994;2024-03-06T03:16:05;98698.44;;;5.06;100.00
29907;BME280;16776;50.958;10.994;2024-03-06T03:18:32;98698.47;;;5.04;100.00
29907;BME280;16776;50.958;10.994;2024-03-06T03:20:59;98693.34;;;5.04;100.00
29907;BME280;16776;50.958;10.994;2024-03-06T03:23:26;98697.56;;;5.05;100.00
29907;BME280;16776;50.958;10.994;2024-03-06T03:25:53;98703.53;;;5.06;100.00
29907;BME280;16776;50.958;10.994;2024-03-06T03:28:19;98700.13;;;5.05;100.00
29907;BME280;16776;50.958;10.994;2024-03-06T03:30:47;98706.09;;;5.07;100.00
29907;BME280;16776;50.958;10.994;2024-03-06T03:33:14;98708.66;;;5.04;100.00
29907;BME280;16776;50.958;10.994;2024-03-06T03:35:40;98681.50;;;4.90;100.00
29907;BME280;16776;50.958;10.994;2024-03-06T03:38:07;98713.78;;;5.04;100.00
29907;BME280;16776;50.958;10.994;2024-03-06T03:40:33;98713.78;;;5.04;100.00
29907;BME280;16776;50.958;10.994;2024-03-06T03:43:00;98714.59;;;5.05;100.00
29907;BME280;16776;50.958;10.994;2024-03-06T03:45:32;98715.47;;;5.04;100.00
29907;BME280;16776;50.958;10.994;2024-03-06T03:48:01;98717.16;;;5.06;100.00
29907;BME280;16776;50.958;10.994;2024-03-06T03:50:28;98714.63;;;5.03;100.00
29907;BME280;16776;50.958;10.994;2024-03-06T03:52:55;98712.94;;;5.04;100.00
29907;BME280;16776;50.958;10.994;2024-03-06T03:55:23;98710.38;;;5.04;100.00
29907;BME280;16776;50.958;10.994;2024-03-06T03:57:50;98719.72;;;5.03;100.00
29907;BME280;16776;50.958;10.994;2024-03-06T04:00:17;98718.88;;;5.01;100.00
29907;BME280;16776;50.958;10.994;2024-03-06T04:02:44;98725.69;;;4.99;100.00
29907;BME280;16776;50.958;10.994;2024-03-06T04:05:12;98720.56;;;4.99;100.00
29907;BME280;16776;50.958;10.994;2024-03-06T04:07:39;98722.28;;;4.94;100.00
29907;BME280;16776;50.958;10.994;2024-03-06T04:10:07;98730.81;;;4.93;100.00
29907;BME280;16776;50.958;10.994;2024-03-06T04:12:36;98731.69;;;4.91;100.00
29907;BME280;16776;50.958;10.994;2024-03-06T04:15:04;98736.78;;;4.88;100.00
29907;BME280;16776;50.958;10.994;2024-03-06T04:17:31;98733.38;;;4.84;100.00
29907;BME280;16776;50.958;10.994;2024-03-06T04:19:57;98737.63;;;4.82;100.00
29907;BME280;16776;50.958;10.994;2024-03-06T04:22:26;98741.88;;;4.82;100.00
29907;BME280;16776;50.958;10.994;2024-03-06T04:24:54;98746.16;;;4.78;100.00
29907;BME280;16776;50.958;10.994;2024-03-06T04:27:21;98752.97;;;4.76;100.00
29907;BME280;16776;50.958;10.994;2024-03-06T04:29:46;98749.53;;;4.74;100.00
29907;BME280;16776;50.958;10.994;2024-03-06T04:32:13;98754.66;;;4.74;100.00
29907;BME280;16776;50.958;10.994;2024-03-06T04:34:39;98750.41;;;4.73;100.00
29907;BME280;16776;50.958;10.994;2024-03-06T04:37:06;98761.44;;;4.74;100.00
29907;BME280;16776;50.958;10.994;2024-03-06T04:39:34;98760.59;;;4.75;100.00
29907;BME280;16776;50.958;10.994;2024-03-06T04:42:00;98761.47;;;4.72;100.00
29907;BME280;16776;50.958;10.994;2024-03-06T04:44:27;98760.59;;;4.73;100.00
29907;BME280;16776;50.958;10.994;2024-03-06T04:46:54;98763.16;;;4.73;100.00
29907;BME280;16776;50.958;10.994;2024-03-06T04:49:21;98769.97;;;4.74;100.00
29907;BME280;16776;50.958;10.994;2024-03-06T04:51:48;98766.56;;;4.74;100.00
29907;BME280;16776;50.958;10.994;2024-03-06T04:54:14;98768.25;;;4.73;100.00
29907;BME280;16776;50.958;10.994;2024-03-06T04:56:42;98766.56;;;4.75;100.00
29907;BME280;16776;50.958;10.994;2024-03-06T04:59:09;98771.69;;;4.72;100.00
29907;BME280;16776;50.958;10.994;2024-03-06T05:01:35;98781.88;;;4.72;100.00
29907;BME280;16776;50.958;10.994;2024-03-06T05:04:02;98776.78;;;4.72;100.00
29907;BME280;16776;50.958;10.994;2024-03-06T05:06:29;98785.28;;;4.71;100.00
29907;BME280;16776;50.958;10.994;2024-03-06T05:08:55;98778.47;;;4.69;100.00
29907;BME280;16776;50.958;10.994;2024-03-06T05:11:22;98787.81;;;4.68;100.00
29907;BME280;16776;50.958;10.994;2024-03-06T05:13:50;98786.97;;;4.69;100.00
29907;BME280;16776;50.958;10.994;2024-03-06T05:16:16;98791.22;;;4.67;100.00
29907;BME280;16776;50.958;10.994;2024-03-06T05:18:43;98789.53;;;4.66;100.00
29907;BME280;16776;50.958;10.994;2024-03-06T05:21:10;98789.53;;;4.66;100.00
29907;BME280;16776;50.958;10.994;2024-03-06T05:23:37;98798.03;;;4.65;100.00
29907;BME280;16776;50.958;10.994;2024-03-06T05:26:03;98793.78;;;4.64;100.00
29907;BME280;16776;50.958;10.994;2024-03-06T05:28:30;98798.88;;;4.64;100.00
29907;BME280;16776;50.958;10.994;2024-03-06T05:30:58;98801.44;;;4.65;100.00
29907;BME280;16776;50.958;10.994;2024-03-06T05:33:26;98814.19;;;4.62;100.00
29907;BME280;16776;50.958;10.994;2024-03-06T05:35:53;98817.59;;;4.63;100.00
29907;BME280;16776;50.958;10.994;2024-03-06T05:38:21;98816.72;;;4.75;100.00
29907;BME280;16776;50.958;10.994;2024-03-06T05:40:47;98819.28;;;4.85;100.00
29907;BME280;16776;50.958;10.994;2024-03-06T05:43:14;98812.47;;;4.93;100.00
29907;BME280;16776;50.958;10.994;2024-03-06T05:45:40;98813.31;;;4.97;100.00
29907;BME280;16776;50.958;10.994;2024-03-06T05:48:08;98820.13;;;5.01;100.00
29907;BME280;16776;50.958;10.994;2024-03-06T05:50:35;98818.44;;;4.98;100.00
29907;BME280;16776;50.958;10.994;2024-03-06T05:53:01;98825.22;;;4.96;100.00
29907;BME280;16776;50.958;10.994;2024-03-06T05:55:28;98825.22;;;4.93;100.00
29907;BME280;16776;50.958;10.994;2024-03-06T05:57:54;98832.91;;;4.90;100.00
29907;BME280;16776;50.958;10.994;2024-03-06T06:00:21;98831.19;;;4.89;100.00
29907;BME280;16776;50.958;10.994;2024-03-06T06:02:48;98832.06;;;4.85;100.00
29907;BME280;16776;50.958;10.994;2024-03-06T06:05:16;98832.06;;;4.85;100.00
29907;BME280;16776;50.958;10.994;2024-03-06T06:07:45;98838.00;;;4.81;100.00
29907;BME280;16776;50.958;10.994;2024-03-06T06:10:12;98842.25;;;4.79;100.00
29907;BME280;16776;50.958;10.994;2024-03-06T06:12:38;98849.06;;;4.79;100.00
29907;BME280;16776;50.958;10.994;2024-03-06T06:15:07;98850.75;;;4.78;100.00
29907;BME280;16776;50.958;10.994;2024-03-06T06:17:33;98852.47;;;4.76;100.00
29907;BME280;16776;50.958;10.994;2024-03-06T06:20:00;98864.34;;;4.74;100.00
29907;BME280;16776;50.958;10.994;2024-03-06T06:22:28;98861.78;;;4.74;100.00
29907;BME280;16776;50.958;10.994;2024-03-06T06:24:55;98860.97;;;4.71;100.00
29907;BME280;16776;50.958;10.994;2024-03-06T06:27:22;98860.09;;;4.69;100.00
29907;BME280;16776;50.958;10.994;2024-03-06T06:29:50;98869.44;;;4.66;100.00
29907;BME280;16776;50.958;10.994;2024-03-06T06:32:18;98871.16;;;4.64;100.00
29907;BME280;16776;50.958;10.994;2024-03-06T06:34:45;98874.56;;;4.63;100.00
29907;BME280;16776;50.958;10.994;2024-03-06T06:37:12;98842.22;;;4.40;100.00
29907;BME280;16776;50.958;10.994;2024-03-06T06:39:41;98883.91;;;4.63;100.00
29907;BME280;16776;50.958;10.994;2024-03-06T06:42:08;98883.91;;;4.60;100.00
29907;BME280;16776;50.958;10.994;2024-03-06T06:44:36;98888.16;;;4.59;100.00
29907;BME280;16776;50.958;10.994;2024-03-06T06:47:02;98889.03;;;4.60;100.00
29907;BME280;16776;50.958;10.994;2024-03-06T06:49:29;98897.53;;;4.59;100.00
29907;BME280;16776;50.958;10.994;2024-03-06T06:51:55;98902.63;;;4.59;100.00
29907;BME280;16776;50.958;10.994;2024-03-06T06:54:22;98899.22;;;4.60;100.00
29907;BME280;16776;50.958;10.994;2024-03-06T06:56:50;98903.47;;;4.62;100.00
29907;BME280;16776;50.958;10.994;2024-03-06T06:59:16;98912.81;;;4.62;100.00
29907;BME280;16776;50.958;10.994;2024-03-06T07:01:45;98900.88;;;4.55;100.00
29907;BME280;16776;50.958;10.994;2024-03-06T07:04:11;98909.44;;;4.64;100.00
29907;BME280;16776;50.958;10.994;2024-03-06T07:06:38;98923.88;;;4.65;100.00
29907;BME280;16776;50.958;10.994;2024-03-06T07:09:04;98917.06;;;4.68;100.00
29907;BME280;16776;50.958;10.994;2024-03-06T07:11:34;98923.91;;;4.72;100.00
29907;BME280;16776;50.958;10.994;2024-03-06T07:14:02;98924.72;;;4.75;100.00
29907;BME280;16776;50.958;10.994;2024-03-06T07:16:29;98926.44;;;4.76;100.00
29907;BME280;16776;50.958;10.994;2024-03-06T07:18:54;98929.84;;;4.77;100.00
29907;BME280;16776;50.958;10.994;2024-03-06T07:21:21;98929.00;;;4.78;100.00
29907;BME280;16776;50.958;10.994;2024-03-06T07:23:47;98940.91;;;4.79;100.00
29907;BME280;16776;50.958;10.994;2024-03-06T07:26:14;98937.50;;;4.78;100.00
29907;BME280;16776;50.958;10.994;2024-03-06T07:28:40;98942.59;;;4.77;100.00
29907;BME280;16776;50.958;10.994;2024-03-06T07:31:08;98931.53;;;4.76;100.00
29907;BME280;16776;50.958;10.994;2024-03-06T07:33:35;98940.91;;;4.73;100.00
29907;BME280;16776;50.958;10.994;2024-03-06T07:36:03;98948.56;;;4.71;100.00
29907;BME280;16776;50.958;10.994;2024-03-06T07:38:30;98950.22;;;4.68;100.00
29907;BME280;16776;50.958;10.994;2024-03-06T07:40:56;98952.78;;;4.68;100.00
29907;BME280;16776;50.958;10.994;2024-03-06T07:43:23;98954.50;;;4.65;100.00
29907;BME280;16776;50.958;10.994;2024-03-06T07:45:50;98954.50;;;4.64;100.00
29907;BME280;16776;50.958;10.994;2024-03-06T07:48:18;98963.00;;;4.66;100.00
29907;BME280;16776;50.958;10.994;2024-03-06T07:50:45;98960.44;;;4.63;100.00
29907;BME280;16776;50.958;10.994;2024-03-06T07:53:12;98921.25;;;4.38;100.00
29907;BME280;16776;50.958;10.994;2024-03-06T07:55:38;98967.25;;;4.64;100.00
29907;BME280;16776;50.958;10.994;2024-03-06T07:58:05;98963.00;;;4.64;100.00
29907;BME280;16776;50.958;10.994;2024-03-06T08:00:33;98962.16;;;4.65;100.00
29907;BME280;16776;50.958;10.994;2024-03-06T08:03:00;98968.09;;;4.66;100.00
29907;BME280;16776;50.958;10.994;2024-03-06T08:05:28;98968.94;;;4.68;100.00
29907;BME280;16776;50.958;10.994;2024-03-06T08:07:55;98964.69;;;4.69;100.00
29907;BME280;16776;50.958;10.994;2024-03-06T08:10:21;98970.66;;;4.71;100.00
29907;BME280;16776;50.958;10.994;2024-03-06T08:12:48;98968.97;;;4.71;100.00
29907;BME280;16776;50.958;10.994;2024-03-06T08:15:15;98974.06;;;4.73;100.00
29907;BME280;16776;50.958;10.994;2024-03-06T08:17:43;98977.47;;;4.75;100.00
29907;BME280;16776;50.958;10.994;2024-03-06T08:20:11;98980.88;;;4.75;100.00
29907;BME280;16776;50.958;10.994;2024-03-06T08:22:40;98973.22;;;4.77;100.00
29907;BME280;16776;50.958;10.994;2024-03-06T08:25:07;98986.81;;;4.76;100.00
29907;BME280;16776;50.958;10.994;2024-03-06T08:27:34;98983.41;;;4.75;100.00
29907;BME280;16776;50.958;10.994;2024-03-06T08:30:00;98989.38;;;4.77;100.00
29907;BME280;16776;50.958;10.994;2024-03-06T08:32:29;98994.50;;;4.79;100.00
29907;BME280;16776;50.958;10.994;2024-03-06T08:34:56;98994.47;;;4.80;100.00
29907;BME280;16776;50.958;10.994;2024-03-06T08:37:23;98991.94;;;4.82;100.00
29907;BME280;16776;50.958;10.994;2024-03-06T08:39:52;98998.75;;;4.86;100.00
29907;BME280;16776;50.958;10.994;2024-03-06T08:42:18;99004.72;;;4.89;100.00
29907;BME280;16776;50.958;10.994;2024-03-06T08:44:45;99003.03;;;4.94;100.00
29907;BME280;16776;50.958;10.994;2024-03-06T08:47:12;98976.66;;;4.85;100.00
29907;BME280;16776;50.958;10.994;2024-03-06T08:49:38;99004.75;;;5.07;100.00
29907;BME280;16776;50.958;10.994;2024-03-06T08:52:05;99003.97;;;5.18;100.00
29907;BME280;16776;50.958;10.994;2024-03-06T08:54:32;99002.22;;;5.26;100.00
29907;BME280;16776;50.958;10.994;2024-03-06T08:57:00;99005.66;;;5.37;100.00
29907;BME280;16776;50.958;10.994;2024-03-06T08:59:28;99006.50;;;5.45;100.00
29907;BME280;16776;50.958;10.994;2024-03-06T09:01:54;99012.47;;;5.59;100.00
29907;BME280;16776;50.958;10.994;2024-03-06T09:04:22;99014.13;;;5.75;100.00
29907;BME280;16776;50.958;10.994;2024-03-06T09:06:48;99010.72;;;5.90;100.00
29907;BME280;16776;50.958;10.994;2024-03-06T09:09:15;99011.53;;;6.06;100.00
29907;BME280;16776;50.958;10.994;2024-03-06T09:11:41;99011.47;;;6.21;100.00
29907;BME280;16776;50.958;10.994;2024-03-06T09:14:09;99021.69;;;6.39;100.00
29907;BME280;16776;50.958;10.994;2024-03-06T09:16:36;99015.66;;;6.49;100.00
29907;BME280;16776;50.958;10.994;2024-03-06T09:19:03;99017.31;;;6.61;100.00
29907;BME280;16776;50.958;10.994;2024-03-06T09:21:29;99026.66;;;6.76;100.00
29907;BME280;16776;50.958;10.994;2024-03-06T09:23:56;99026.59;;;6.89;100.00
29907;BME280;16776;50.958;10.994;2024-03-06T09:26:22;99021.34;;;7.08;100.00
29907;BME280;16776;50.958;10.994;2024-03-06T09:28:49;99027.22;;;7.26;100.00
29907;BME280;16776;50.958;10.994;2024-03-06T09:31:17;99029.63;;;7.48;100.00
29907;BME280;16776;50.958;10.994;2024-03-06T09:33:44;99032.91;;;7.62;100.00
29907;BME280;16776;50.958;10.994;2024-03-06T09:36:11;99036.19;;;7.79;100.00
29907;BME280;16776;50.958;10.994;2024-03-06T09:38:39;99033.44;;;7.97;100.00
29907;BME280;16776;50.958;10.994;2024-03-06T09:41:07;99040.09;;;8.18;100.00
29907;BME280;16776;50.958;10.994;2024-03-06T09:43:34;99036.44;;;8.39;100.00
29907;BME280;16776;50.958;10.994;2024-03-06T09:46:01;99032.78;;;8.59;100.00
29907;BME280;16776;50.958;10.994;2024-03-06T09:48:30;99035.94;;;8.81;100.00
29907;BME280;16776;50.958;10.994;2024-03-06T09:51:01;99038.19;;;9.02;100.00
29907;BME280;16776;50.958;10.994;2024-03-06T09:53:28;99043.97;;;9.18;100.00
29907;BME280;16776;50.958;10.994;2024-03-06T09:55:56;99033.38;;;9.41;100.00
29907;BME280;16776;50.958;10.994;2024-03-06T09:58:23;99031.41;;;9.57;100.00
29907;BME280;16776;50.958;10.994;2024-03-06T10:00:50;99040.53;;;9.74;100.00
29907;BME280;16776;50.958;10.994;2024-03-06T10:03:16;99043.66;;;9.92;100.00
29907;BME280;16776;50.958;10.994;2024-03-06T10:05:44;99050.25;;;10.09;100.00
29907;BME280;16776;50.958;10.994;2024-03-06T10:08:11;99051.66;;;10.24;100.00
29907;BME280;16776;50.958;10.994;2024-03-06T10:10:41;99051.38;;;10.39;100.00
29907;BME280;16776;50.958;10.994;2024-03-06T10:13:08;99046.00;;;10.51;100.00
29907;BME280;16776;50.958;10.994;2024-03-06T10:15:35;99042.41;;;10.61;100.00
29907;BME280;16776;50.958;10.994;2024-03-06T10:18:13;99009.94;;;10.51;99.58
29907;BME280;16776;50.958;10.994;2024-03-06T10:20:40;99048.09;;;10.76;100.00
29907;BME280;16776;50.958;10.994;2024-03-06T10:23:10;99047.91;;;10.85;99.69
29907;BME280;16776;50.958;10.994;2024-03-06T10:25:36;99049.59;;;10.87;98.09
29907;BME280;16776;50.958;10.994;2024-03-06T10:28:07;99053.81;;;10.90;98.29
29907;BME280;16776;50.958;10.994;2024-03-06T10:30:34;99052.19;;;10.86;98.16
29907;BME280;16776;50.958;10.994;2024-03-06T10:33:03;99056.47;;;10.87;98.49
29907;BME280;16776;50.958;10.994;2024-03-06T10:35:29;99052.13;;;10.89;98.47
29907;BME280;16776;50.958;10.994;2024-03-06T10:37:56;99058.00;;;10.94;98.19
29907;BME280;16776;50.958;10.994;2024-03-06T10:40:27;99048.38;;;11.02;98.12
29907;BME280;16776;50.958;10.994;2024-03-06T10:42:55;99053.50;;;11.05;98.28
29907;BME280;16776;50.958;10.994;2024-03-06T10:45:24;99054.13;;;11.15;97.43
29907;BME280;16776;50.958;10.994;2024-03-06T10:47:54;99057.44;;;11.20;97.80
29907;BME280;16776;50.958;10.994;2024-03-06T10:50:21;99047.84;;;11.26;97.50
29907;BME280;16776;50.958;10.994;2024-03-06T10:52:49;99039.31;;;11.24;96.65
29907;BME280;16776;50.958;10.994;2024-03-06T10:55:20;99056.91;;;11.44;98.96
29907;BME280;16776;50.958;10.994;2024-03-06T10:57:52;99063.78;;;11.43;96.96
29907;BME280;16776;50.958;10.994;2024-03-06T11:00:19;99057.66;;;11.48;96.40
29907;BME280;16776;50.958;10.994;2024-03-06T11:02:47;99062.78;;;11.51;95.48
29907;BME280;16776;50.958;10.994;2024-03-06T11:05:15;99061.81;;;11.55;95.68
29907;BME280;16776;50.958;10.994;2024-03-06T11:07:42;99060.91;;;11.56;94.64
29907;BME280;16776;50.958;10.994;2024-03-06T11:10:09;99066.09;;;11.56;94.95
29907;BME280;16776;50.958;10.994;2024-03-06T11:12:42;99059.34;;;11.50;94.22
29907;BME280;16776;50.958;10.994;2024-03-06T11:15:13;99056.75;;;11.50;95.21
29907;BME280;16776;50.958;10.994;2024-03-06T11:17:40;99052.66;;;11.41;93.69
29907;BME280;16776;50.958;10.994;2024-03-06T11:20:17;99057.66;;;11.48;92.62
29907;BME280;16776;50.958;10.994;2024-03-06T11:23:03;99059.28;;;11.52;95.01
29907;BME280;16776;50.958;10.994;2024-03-06T11:25:59;99059.34;;;11.50;94.48
29907;BME280;16776;50.958;10.994;2024-03-06T11:28:28;99057.84;;;11.40;93.56
29907;BME280;16776;50.958;10.994;2024-03-06T11:30:58;99052.63;;;11.43;94.19
29907;BME280;16776;50.958;10.994;2024-03-06T11:33:28;99054.22;;;11.49;94.26
29907;BME280;16776;50.958;10.994;2024-03-06T11:36:18;99041.34;;;11.47;94.00
29907;BME280;16776;50.958;10.994;2024-03-06T11:38:51;99059.09;;;11.61;93.02
29907;BME280;16776;50.958;10.994;2024-03-06T11:41:20;99053.94;;;11.61;93.66
29907;BME280;16776;50.958;10.994;2024-03-06T11:43:48;99058.97;;;11.67;93.41
29907;BME280;16776;50.958;10.994;2024-03-06T11:46:17;99057.00;;;11.76;93.66
29907;BME280;16776;50.958;10.994;2024-03-06T11:48:51;99053.19;;;11.91;93.58
29907;BME280;16776;50.958;10.994;2024-03-06T11:51:18;99046.25;;;11.93;92.77
29907;BME280;16776;50.958;10.994;2024-03-06T11:53:45;99057.28;;;12.00;93.30
29907;BME280;16776;50.958;10.994;2024-03-06T11:56:11;99054.50;;;12.07;92.70
29907;BME280;16776;50.958;10.994;2024-03-06T11:58:38;99045.72;;;12.14;92.99
29907;BME280;16776;50.958;10.994;2024-03-06T12:01:05;99045.47;;;12.22;92.16
29907;BME280;16776;50.958;10.994;2024-03-06T12:03:34;99046.13;;;12.30;92.00
29907;BME280;16776;50.958;10.994;2024-03-06T12:06:01;99048.75;;;12.29;92.08
29907;BME280;16776;50.958;10.994;2024-03-06T12:08:28;99052.94;;;12.34;92.69
29907;BME280;16776;50.958;10.994;2024-03-06T12:10:55;99048.50;;;12.38;92.61
29907;BME280;16776;50.958;10.994;2024-03-06T12:13:23;99049.31;;;12.40;92.57
29907;BME280;16776;50.958;10.994;2024-03-06T12:15:50;99044.06;;;12.43;92.05
29907;BME280;16776;50.958;10.994;2024-03-06T12:18:17;99044.88;;;12.45;91.99
29907;BME280;16776;50.958;10.994;2024-03-06T12:20:45;99034.38;;;12.51;92.48
29907;BME280;16776;50.958;10.994;2024-03-06T12:23:19;99040.19;;;12.59;91.99
29907;BME280;16776;50.958;10.994;2024-03-06T12:25:48;99036.84;;;12.54;91.67
29907;BME280;16776;50.958;10.994;2024-03-06T12:28:14;99042.84;;;12.56;92.00
29907;BME280;16776;50.958;10.994;2024-03-06T12:30:43;99034.34;;;12.52;91.61
29907;BME280;16776;50.958;10.994;2024-03-06T12:33:10;99040.09;;;12.62;91.45
29907;BME280;16776;50.958;10.994;2024-03-06T12:35:40;99046.97;;;12.63;92.07
29907;BME280;16776;50.958;10.994;2024-03-06T12:38:17;99048.47;;;12.72;91.35
29907;BME280;16776;50.958;10.994;2024-03-06T12:40:43;99046.09;;;12.64;91.22
29907;BME280;16776;50.958;10.994;2024-03-06T12:43:10;99051.16;;;12.67;91.49
29907;BME280;16776;50.958;10.994;2024-03-06T12:45:36;99047.66;;;12.70;91.51
29907;BME280;16776;50.958;10.994;2024-03-06T12:48:05;99044.13;;;12.72;91.47
29907;BME280;16776;50.958;10.994;2024-03-06T12:50:32;99044.88;;;12.76;91.41
29907;BME280;16776;50.958;10.994;2024-03-06T12:52:58;99046.53;;;12.78;91.80